TRA72W EHAM-LEIB
Flight info
| Callsign | TRA72W |
|---|---|
| Flight time | 2h 28m |
| Altitude | 39000 |
| Route | LOPIK N852 LNO DCT SUTAL DCT GTQ DCT POGOL DCT LASAT DCT MOROK DCT GILIR DCT GEVEA DCT INCUS DCT BALSI DCT RETNO DCT TUPOX DCT MTG DCT DIVKO DCT VATIR N852 PIVUS Z237 SULID DCT DIMIB DCT POS |
| Aircraft | A20N/M-SDE2E3FGHIRWXY/LB1 |
Departure
| Time | 2026-04-30 10:13 |
|---|---|
| Airport | Amsterdam Airport Schiphol (EHAM) |
Arrival
| Time | 2026-04-30 12:41 |
|---|---|
| Airport | Ibiza Airport (LEIB) |
| Time | Latitude | Longitude | Altitude | Speed | Heading |
|---|---|---|---|---|---|
| 2026-04-30 09:31 | 52.30508 | 4.76556 | -1 ft | 0 kts | 59° |
| 2026-04-30 10:00 | 52.30508 | 4.76554 | -2 ft | 2 kts | 59° |
| 2026-04-30 10:00 | 52.30494 | 4.76518 | -2 ft | 4 kts | 60° |
| 2026-04-30 10:01 | 52.30488 | 4.76465 | -2 ft | 1 kts | 136° |
| 2026-04-30 10:04 | 52.30487 | 4.76466 | -2 ft | 0 kts | 141° |
| 2026-04-30 10:04 | 52.30472 | 4.76475 | -2 ft | 4 kts | 157° |
| 2026-04-30 10:04 | 52.30426 | 4.76519 | -2 ft | 11 kts | 148° |
| 2026-04-30 10:05 | 52.30352 | 4.76607 | -1 ft | 15 kts | 122° |
| 2026-04-30 10:05 | 52.30310 | 4.76739 | -2 ft | 12 kts | 132° |
| 2026-04-30 10:05 | 52.30332 | 4.76874 | -2 ft | 14 kts | 57° |
| 2026-04-30 10:05 | 52.30387 | 4.77019 | -2 ft | 16 kts | 58° |
| 2026-04-30 10:06 | 52.30450 | 4.77186 | -2 ft | 18 kts | 59° |
| 2026-04-30 10:06 | 52.30521 | 4.77368 | -2 ft | 20 kts | 57° |
| 2026-04-30 10:06 | 52.30600 | 4.77561 | -1 ft | 21 kts | 45° |
| 2026-04-30 10:06 | 52.30739 | 4.77594 | -1 ft | 21 kts | 1° |
| 2026-04-30 10:07 | 52.30896 | 4.77611 | -1 ft | 24 kts | 3° |
| 2026-04-30 10:07 | 52.31070 | 4.77627 | -1 ft | 26 kts | 3° |
| 2026-04-30 10:07 | 52.31257 | 4.77643 | -1 ft | 28 kts | 3° |
| 2026-04-30 10:07 | 52.31434 | 4.77647 | -1 ft | 22 kts | 340° |
| 2026-04-30 10:08 | 52.31559 | 4.77496 | -1 ft | 20 kts | 343° |
| 2026-04-30 10:08 | 52.31684 | 4.77574 | -2 ft | 21 kts | 52° |
| 2026-04-30 10:08 | 52.31806 | 4.77692 | -3 ft | 23 kts | 1° |
| 2026-04-30 10:08 | 52.31943 | 4.77706 | -1 ft | 18 kts | 4° |
| 2026-04-30 10:09 | 52.32041 | 4.77777 | -1 ft | 16 kts | 42° |
| 2026-04-30 10:09 | 52.32091 | 4.77849 | -1 ft | 0 kts | 42° |
| 2026-04-30 10:10 | 52.32096 | 4.77857 | -1 ft | 3 kts | 42° |
| 2026-04-30 10:10 | 52.32118 | 4.77899 | -1 ft | 7 kts | 60° |
| 2026-04-30 10:10 | 52.32120 | 4.77986 | -1 ft | 9 kts | 104° |
| 2026-04-30 10:11 | 52.32093 | 4.78012 | -1 ft | 5 kts | 179° |
| 2026-04-30 10:11 | 52.32069 | 4.78010 | -1 ft | 0 kts | 182° |
| 2026-04-30 10:11 | 52.32065 | 4.78009 | -1 ft | 3 kts | 182° |
| 2026-04-30 10:12 | 52.32056 | 4.78009 | -1 ft | 6 kts | 182° |
| 2026-04-30 10:12 | 52.31748 | 4.77983 | -2 ft | 81 kts | 183° |
| 2026-04-30 10:12 | 52.30976 | 4.77913 | -3 ft | 138 kts | 182° |
| 2026-04-30 10:12 | 52.29957 | 4.77837 | 578 ft | 142 kts | 178° |
| 2026-04-30 10:13 | 52.28962 | 4.77882 | 1285 ft | 149 kts | 163° |
| 2026-04-30 10:13 | 52.27961 | 4.78368 | 1877 ft | 153 kts | 158° |
| 2026-04-30 10:13 | 52.26887 | 4.78872 | 2400 ft | 169 kts | 160° |
| 2026-04-30 10:13 | 52.25691 | 4.79377 | 3009 ft | 187 kts | 161° |
| 2026-04-30 10:14 | 52.24354 | 4.79912 | 3626 ft | 208 kts | 162° |
| 2026-04-30 10:14 | 52.22878 | 4.80479 | 4268 ft | 227 kts | 162° |
| 2026-04-30 10:14 | 52.19608 | 4.81912 | 5767 ft | 249 kts | 149° |
| 2026-04-30 10:15 | 52.18279 | 4.83652 | 6741 ft | 246 kts | 126° |
| 2026-04-30 10:15 | 52.17401 | 4.86061 | 7660 ft | 250 kts | 117° |
| 2026-04-30 10:15 | 52.16572 | 4.88586 | 8530 ft | 256 kts | 117° |
| 2026-04-30 10:15 | 52.15586 | 4.91041 | 9440 ft | 262 kts | 129° |
| 2026-04-30 10:16 | 52.14174 | 4.92980 | 10329 ft | 273 kts | 149° |
| 2026-04-30 10:16 | 52.12355 | 4.94124 | 10966 ft | 291 kts | 157° |
| 2026-04-30 10:16 | 52.10346 | 4.95201 | 11285 ft | 317 kts | 158° |
| 2026-04-30 10:17 | 52.05947 | 4.97443 | 12569 ft | 338 kts | 159° |
| 2026-04-30 10:17 | 52.01395 | 4.99764 | 14157 ft | 348 kts | 159° |
| 2026-04-30 10:17 | 51.99072 | 5.00960 | 14896 ft | 353 kts | 159° |
| 2026-04-30 10:18 | 51.96715 | 5.02174 | 15621 ft | 358 kts | 159° |
| 2026-04-30 10:18 | 51.94326 | 5.03399 | 16364 ft | 362 kts | 159° |
| 2026-04-30 10:18 | 51.91939 | 5.04624 | 17036 ft | 366 kts | 159° |
| 2026-04-30 10:19 | 51.87021 | 5.07156 | 18355 ft | 375 kts | 159° |
| 2026-04-30 10:19 | 51.84523 | 5.08439 | 18991 ft | 379 kts | 159° |
| 2026-04-30 10:19 | 51.81990 | 5.09733 | 19597 ft | 384 kts | 159° |
| 2026-04-30 10:19 | 51.79417 | 5.11044 | 20250 ft | 388 kts | 159° |
| 2026-04-30 10:20 | 51.76844 | 5.12356 | 20852 ft | 392 kts | 159° |
| 2026-04-30 10:20 | 51.71591 | 5.15028 | 22004 ft | 400 kts | 159° |
| 2026-04-30 10:20 | 51.68926 | 5.16382 | 22548 ft | 404 kts | 159° |
| 2026-04-30 10:21 | 51.66234 | 5.17749 | 23090 ft | 407 kts | 160° |
| 2026-04-30 10:21 | 51.63516 | 5.19127 | 23615 ft | 411 kts | 160° |
| 2026-04-30 10:21 | 51.60775 | 5.20517 | 24137 ft | 415 kts | 160° |
| 2026-04-30 10:21 | 51.58009 | 5.21918 | 24642 ft | 418 kts | 159° |
| 2026-04-30 10:22 | 51.55226 | 5.23324 | 25175 ft | 421 kts | 159° |
| 2026-04-30 10:22 | 51.52425 | 5.24738 | 25676 ft | 423 kts | 159° |
| 2026-04-30 10:22 | 51.49608 | 5.26160 | 26163 ft | 426 kts | 159° |
| 2026-04-30 10:22 | 51.46779 | 5.27581 | 26629 ft | 428 kts | 159° |
| 2026-04-30 10:23 | 51.43926 | 5.29012 | 27076 ft | 431 kts | 159° |
| 2026-04-30 10:23 | 51.41054 | 5.30453 | 27515 ft | 433 kts | 159° |
| 2026-04-30 10:23 | 51.38174 | 5.31898 | 27935 ft | 436 kts | 159° |
| 2026-04-30 10:23 | 51.35275 | 5.33350 | 28336 ft | 438 kts | 159° |
| 2026-04-30 10:24 | 51.32356 | 5.34806 | 28722 ft | 440 kts | 159° |
| 2026-04-30 10:24 | 51.29431 | 5.36267 | 29094 ft | 442 kts | 159° |
| 2026-04-30 10:24 | 51.26489 | 5.37731 | 29450 ft | 444 kts | 159° |
| 2026-04-30 10:24 | 51.23532 | 5.39201 | 29787 ft | 446 kts | 159° |
| 2026-04-30 10:25 | 51.20561 | 5.40678 | 30135 ft | 448 kts | 159° |
| 2026-04-30 10:25 | 51.17578 | 5.42161 | 30470 ft | 450 kts | 159° |
| 2026-04-30 10:25 | 51.14585 | 5.43644 | 30815 ft | 452 kts | 159° |
| 2026-04-30 10:25 | 51.11574 | 5.45133 | 31130 ft | 454 kts | 159° |
| 2026-04-30 10:26 | 51.08553 | 5.46626 | 31455 ft | 456 kts | 159° |
| 2026-04-30 10:26 | 51.05520 | 5.48121 | 31836 ft | 456 kts | 159° |
| 2026-04-30 10:26 | 51.02504 | 5.49605 | 32266 ft | 454 kts | 159° |
| 2026-04-30 10:26 | 50.99486 | 5.51091 | 32697 ft | 452 kts | 159° |
| 2026-04-30 10:27 | 50.96482 | 5.52567 | 33096 ft | 451 kts | 159° |
| 2026-04-30 10:27 | 50.93489 | 5.54034 | 33490 ft | 450 kts | 159° |
| 2026-04-30 10:27 | 50.90507 | 5.55497 | 33868 ft | 448 kts | 159° |
| 2026-04-30 10:27 | 50.87531 | 5.56955 | 34238 ft | 447 kts | 159° |
| 2026-04-30 10:28 | 50.84556 | 5.58406 | 34536 ft | 447 kts | 159° |
| 2026-04-30 10:28 | 50.81580 | 5.59857 | 34829 ft | 447 kts | 159° |
| 2026-04-30 10:28 | 50.78608 | 5.61306 | 35113 ft | 447 kts | 159° |
| 2026-04-30 10:28 | 50.75633 | 5.62757 | 35385 ft | 447 kts | 159° |
| 2026-04-30 10:29 | 50.72662 | 5.64202 | 35654 ft | 447 kts | 159° |
| 2026-04-30 10:29 | 50.69687 | 5.65647 | 35914 ft | 447 kts | 159° |
| 2026-04-30 10:29 | 50.66708 | 5.67091 | 36147 ft | 448 kts | 159° |
| 2026-04-30 10:29 | 50.63733 | 5.68535 | 36370 ft | 448 kts | 159° |
| 2026-04-30 10:30 | 50.60745 | 5.69982 | 36578 ft | 449 kts | 159° |
| 2026-04-30 10:30 | 50.57784 | 5.71499 | 36820 ft | 446 kts | 155° |
| 2026-04-30 10:30 | 50.54905 | 5.73286 | 37082 ft | 444 kts | 154° |
| 2026-04-30 10:30 | 50.52035 | 5.75084 | 37315 ft | 443 kts | 154° |
| 2026-04-30 10:31 | 50.49172 | 5.76879 | 37537 ft | 443 kts | 154° |
| 2026-04-30 10:31 | 50.46315 | 5.78663 | 37780 ft | 441 kts | 154° |
| 2026-04-30 10:31 | 50.43465 | 5.80434 | 38009 ft | 440 kts | 155° |
| 2026-04-30 10:31 | 50.40618 | 5.82200 | 38166 ft | 441 kts | 155° |
| 2026-04-30 10:32 | 50.37767 | 5.83963 | 38308 ft | 441 kts | 155° |
| 2026-04-30 10:32 | 50.34904 | 5.85732 | 38467 ft | 442 kts | 155° |
| 2026-04-30 10:32 | 50.32045 | 5.87497 | 38606 ft | 442 kts | 155° |
| 2026-04-30 10:32 | 50.29182 | 5.89261 | 38752 ft | 443 kts | 155° |
| 2026-04-30 10:33 | 50.26316 | 5.91024 | 38893 ft | 443 kts | 155° |
| 2026-04-30 10:33 | 50.23446 | 5.92789 | 39001 ft | 443 kts | 155° |
| 2026-04-30 10:33 | 50.17701 | 5.96321 | 39229 ft | 445 kts | 155° |
| 2026-04-30 10:34 | 50.12910 | 5.99249 | 39318 ft | 445 kts | 155° |
| 2026-04-30 10:34 | 50.07155 | 6.02759 | 39311 ft | 444 kts | 155° |
| 2026-04-30 10:35 | 50.01399 | 6.06270 | 39320 ft | 444 kts | 155° |
| 2026-04-30 10:35 | 49.95638 | 6.09776 | 39315 ft | 445 kts | 155° |
| 2026-04-30 10:36 | 49.89874 | 6.13261 | 39311 ft | 444 kts | 155° |
| 2026-04-30 10:36 | 49.84132 | 6.16732 | 39300 ft | 443 kts | 155° |
| 2026-04-30 10:37 | 49.78398 | 6.20188 | 39301 ft | 442 kts | 155° |
| 2026-04-30 10:37 | 49.72666 | 6.23637 | 39310 ft | 442 kts | 155° |
| 2026-04-30 10:38 | 49.66899 | 6.27101 | 39321 ft | 447 kts | 155° |
| 2026-04-30 10:38 | 49.61105 | 6.30567 | 39321 ft | 446 kts | 156° |
| 2026-04-30 10:39 | 49.55316 | 6.34018 | 39323 ft | 447 kts | 156° |
| 2026-04-30 10:39 | 49.49522 | 6.37471 | 39321 ft | 447 kts | 156° |
| 2026-04-30 10:40 | 49.43746 | 6.41007 | 39320 ft | 446 kts | 153° |
| 2026-04-30 10:40 | 49.38090 | 6.44939 | 39314 ft | 446 kts | 152° |
| 2026-04-30 10:41 | 49.32419 | 6.48857 | 39312 ft | 447 kts | 153° |
| 2026-04-30 10:41 | 49.26762 | 6.52706 | 39316 ft | 448 kts | 153° |
| 2026-04-30 10:42 | 49.21057 | 6.56557 | 39315 ft | 449 kts | 153° |
| 2026-04-30 10:42 | 49.15298 | 6.60440 | 39311 ft | 450 kts | 153° |
| 2026-04-30 10:43 | 49.09604 | 6.64273 | 39303 ft | 450 kts | 153° |
| 2026-04-30 10:43 | 49.03889 | 6.68099 | 39303 ft | 449 kts | 155° |
| 2026-04-30 10:44 | 48.97873 | 6.70763 | 39302 ft | 454 kts | 168° |
| 2026-04-30 10:44 | 48.91558 | 6.71402 | 39294 ft | 457 kts | 180° |
| 2026-04-30 10:45 | 48.85202 | 6.71102 | 39292 ft | 456 kts | 180° |
| 2026-04-30 10:45 | 48.78832 | 6.70845 | 39272 ft | 455 kts | 180° |
| 2026-04-30 10:46 | 48.72551 | 6.70600 | 39275 ft | 454 kts | 180° |
| 2026-04-30 10:46 | 48.66244 | 6.70356 | 39272 ft | 453 kts | 180° |
| 2026-04-30 10:47 | 48.59937 | 6.70111 | 39250 ft | 453 kts | 180° |
| 2026-04-30 10:47 | 48.53627 | 6.69866 | 39242 ft | 453 kts | 180° |
| 2026-04-30 10:48 | 48.47320 | 6.69624 | 39243 ft | 454 kts | 180° |
| 2026-04-30 10:48 | 48.41010 | 6.69380 | 39250 ft | 454 kts | 180° |
| 2026-04-30 10:49 | 48.34696 | 6.69137 | 39241 ft | 454 kts | 180° |
| 2026-04-30 10:49 | 48.28372 | 6.68892 | 39250 ft | 454 kts | 180° |
| 2026-04-30 10:50 | 48.22058 | 6.68652 | 39238 ft | 454 kts | 180° |
| 2026-04-30 10:50 | 48.15730 | 6.68411 | 39231 ft | 454 kts | 180° |
| 2026-04-30 10:51 | 48.09449 | 6.68171 | 39214 ft | 455 kts | 180° |
| 2026-04-30 10:51 | 48.03125 | 6.67930 | 39220 ft | 455 kts | 180° |
| 2026-04-30 10:52 | 47.96795 | 6.67692 | 39219 ft | 454 kts | 181° |
| 2026-04-30 10:52 | 47.90491 | 6.67455 | 39209 ft | 453 kts | 181° |
| 2026-04-30 10:53 | 47.84179 | 6.67216 | 39198 ft | 454 kts | 181° |
| 2026-04-30 10:53 | 47.77871 | 6.66978 | 39200 ft | 454 kts | 181° |
| 2026-04-30 10:54 | 47.71560 | 6.66742 | 39206 ft | 454 kts | 181° |
| 2026-04-30 10:54 | 47.65248 | 6.66506 | 39197 ft | 453 kts | 181° |
| 2026-04-30 10:55 | 47.58946 | 6.66269 | 39188 ft | 453 kts | 181° |
| 2026-04-30 10:55 | 47.52645 | 6.66040 | 39196 ft | 452 kts | 181° |
| 2026-04-30 10:56 | 47.46354 | 6.65807 | 39189 ft | 452 kts | 182° |
| 2026-04-30 10:56 | 47.40206 | 6.64048 | 39181 ft | 452 kts | 202° |
| 2026-04-30 10:57 | 47.34787 | 6.59482 | 39178 ft | 449 kts | 221° |
| 2026-04-30 10:57 | 47.30046 | 6.53486 | 39189 ft | 449 kts | 221° |
| 2026-04-30 10:58 | 47.25317 | 6.47549 | 39202 ft | 450 kts | 221° |
| 2026-04-30 10:58 | 47.20535 | 6.41576 | 39195 ft | 452 kts | 221° |
| 2026-04-30 10:59 | 47.15740 | 6.35603 | 39194 ft | 452 kts | 221° |
| 2026-04-30 10:59 | 47.10952 | 6.29664 | 39177 ft | 450 kts | 219° |
| 2026-04-30 11:00 | 47.05548 | 6.25040 | 39177 ft | 453 kts | 201° |
| 2026-04-30 11:00 | 46.99418 | 6.22955 | 39181 ft | 454 kts | 185° |
| 2026-04-30 11:01 | 46.93116 | 6.22151 | 39199 ft | 455 kts | 186° |
| 2026-04-30 11:01 | 46.86808 | 6.21314 | 39194 ft | 454 kts | 186° |
| 2026-04-30 11:02 | 46.80514 | 6.20476 | 39193 ft | 454 kts | 186° |
| 2026-04-30 11:02 | 46.74231 | 6.19641 | 39177 ft | 453 kts | 186° |
| 2026-04-30 11:03 | 46.67951 | 6.18810 | 39172 ft | 453 kts | 186° |
| 2026-04-30 11:04 | 46.58538 | 6.17569 | 39179 ft | 452 kts | 186° |
| 2026-04-30 11:04 | 46.52277 | 6.16742 | 39196 ft | 452 kts | 186° |
| 2026-04-30 11:05 | 46.46006 | 6.15920 | 39190 ft | 452 kts | 186° |
| 2026-04-30 11:05 | 46.39746 | 6.15098 | 39192 ft | 452 kts | 186° |
| 2026-04-30 11:06 | 46.33895 | 6.14335 | 39195 ft | 452 kts | 186° |
| 2026-04-30 11:06 | 46.27643 | 6.13518 | 39201 ft | 452 kts | 186° |
| 2026-04-30 11:07 | 46.21414 | 6.12361 | 39198 ft | 451 kts | 191° |
| 2026-04-30 11:07 | 46.15258 | 6.10973 | 39197 ft | 451 kts | 190° |
| 2026-04-30 11:08 | 46.09049 | 6.09591 | 39183 ft | 452 kts | 190° |
| 2026-04-30 11:08 | 46.02831 | 6.08214 | 39177 ft | 453 kts | 190° |
| 2026-04-30 11:09 | 45.96951 | 6.06913 | 39171 ft | 454 kts | 190° |
| 2026-04-30 11:09 | 45.90772 | 6.05555 | 39155 ft | 451 kts | 190° |
| 2026-04-30 11:10 | 45.84555 | 6.04185 | 39154 ft | 452 kts | 190° |
| 2026-04-30 11:10 | 45.78331 | 6.02807 | 39154 ft | 452 kts | 190° |
| 2026-04-30 11:11 | 45.72118 | 6.01437 | 39155 ft | 453 kts | 190° |
| 2026-04-30 11:11 | 45.65894 | 6.00065 | 39160 ft | 453 kts | 191° |
| 2026-04-30 11:12 | 45.59678 | 5.98696 | 39157 ft | 450 kts | 190° |
| 2026-04-30 11:12 | 45.53490 | 5.97344 | 39156 ft | 450 kts | 191° |
| 2026-04-30 11:13 | 45.47304 | 5.95951 | 39154 ft | 449 kts | 193° |
| 2026-04-30 11:13 | 45.41196 | 5.94048 | 39157 ft | 448 kts | 194° |
| 2026-04-30 11:14 | 45.35113 | 5.92141 | 39156 ft | 447 kts | 194° |
| 2026-04-30 11:14 | 45.30071 | 5.90567 | 39163 ft | 447 kts | 194° |
| 2026-04-30 11:15 | 45.23526 | 5.88532 | 39169 ft | 446 kts | 194° |
| 2026-04-30 11:15 | 45.17458 | 5.86649 | 39172 ft | 446 kts | 195° |
| 2026-04-30 11:16 | 45.11397 | 5.84771 | 39150 ft | 446 kts | 195° |
| 2026-04-30 11:16 | 45.05700 | 5.83013 | 39136 ft | 443 kts | 195° |
| 2026-04-30 11:17 | 44.99865 | 5.81214 | 39138 ft | 443 kts | 195° |
| 2026-04-30 11:17 | 44.93853 | 5.79363 | 39142 ft | 442 kts | 195° |
| 2026-04-30 11:18 | 44.87849 | 5.77521 | 39135 ft | 441 kts | 195° |
| 2026-04-30 11:18 | 44.78855 | 5.74763 | 39144 ft | 441 kts | 195° |
| 2026-04-30 11:19 | 44.72863 | 5.72938 | 39134 ft | 440 kts | 195° |
| 2026-04-30 11:19 | 44.66890 | 5.71116 | 39131 ft | 439 kts | 196° |
| 2026-04-30 11:20 | 44.60919 | 5.69301 | 39139 ft | 439 kts | 196° |
| 2026-04-30 11:20 | 44.54950 | 5.67491 | 39136 ft | 438 kts | 196° |
| 2026-04-30 11:21 | 44.49065 | 5.65711 | 39137 ft | 438 kts | 196° |
| 2026-04-30 11:21 | 44.43108 | 5.63912 | 39129 ft | 437 kts | 196° |
| 2026-04-30 11:22 | 44.37220 | 5.61882 | 39127 ft | 434 kts | 202° |
| 2026-04-30 11:22 | 44.31604 | 5.58882 | 39125 ft | 431 kts | 206° |
| 2026-04-30 11:23 | 44.26967 | 5.56318 | 39128 ft | 431 kts | 205° |
| 2026-04-30 11:24 | 44.18636 | 5.51755 | 39127 ft | 432 kts | 205° |
| 2026-04-30 11:24 | 44.13043 | 5.48704 | 39134 ft | 432 kts | 205° |
| 2026-04-30 11:25 | 44.04640 | 5.44136 | 39143 ft | 432 kts | 205° |
| 2026-04-30 11:26 | 43.93440 | 5.38075 | 39140 ft | 429 kts | 206° |
| 2026-04-30 11:26 | 43.87882 | 5.35067 | 39127 ft | 429 kts | 206° |
| 2026-04-30 11:27 | 43.82324 | 5.32065 | 39131 ft | 429 kts | 206° |
| 2026-04-30 11:27 | 43.76769 | 5.29075 | 39126 ft | 428 kts | 206° |
| 2026-04-30 11:28 | 43.68436 | 5.24597 | 39128 ft | 428 kts | 206° |
| 2026-04-30 11:29 | 43.62886 | 5.21620 | 39127 ft | 427 kts | 206° |
| 2026-04-30 11:29 | 43.54570 | 5.17173 | 39121 ft | 427 kts | 206° |
| 2026-04-30 11:30 | 43.46265 | 5.12749 | 39115 ft | 426 kts | 206° |
| 2026-04-30 11:31 | 43.40753 | 5.09751 | 39111 ft | 424 kts | 209° |
| 2026-04-30 11:31 | 43.35613 | 5.05897 | 39113 ft | 418 kts | 218° |
| 2026-04-30 11:32 | 43.30840 | 5.01366 | 39116 ft | 417 kts | 219° |
| 2026-04-30 11:32 | 43.26067 | 4.96846 | 39117 ft | 416 kts | 219° |
| 2026-04-30 11:33 | 43.18908 | 4.90126 | 39115 ft | 415 kts | 218° |
| 2026-04-30 11:33 | 43.14167 | 4.85693 | 39127 ft | 415 kts | 218° |
| 2026-04-30 11:34 | 43.09406 | 4.81236 | 39129 ft | 415 kts | 219° |
| 2026-04-30 11:34 | 43.04585 | 4.76888 | 39133 ft | 416 kts | 214° |
| 2026-04-30 11:35 | 42.99510 | 4.73044 | 39135 ft | 417 kts | 213° |
| 2026-04-30 11:35 | 42.94432 | 4.69212 | 39141 ft | 417 kts | 214° |
| 2026-04-30 11:36 | 42.89364 | 4.65375 | 39137 ft | 417 kts | 213° |
| 2026-04-30 11:36 | 42.84294 | 4.61547 | 39135 ft | 416 kts | 214° |
| 2026-04-30 11:37 | 42.79232 | 4.57729 | 39142 ft | 415 kts | 214° |
| 2026-04-30 11:37 | 42.74175 | 4.53921 | 39140 ft | 415 kts | 214° |
| 2026-04-30 11:38 | 42.69117 | 4.50124 | 39147 ft | 415 kts | 214° |
| 2026-04-30 11:38 | 42.64059 | 4.46335 | 39145 ft | 415 kts | 214° |
| 2026-04-30 11:39 | 42.59007 | 4.42558 | 39136 ft | 414 kts | 214° |
| 2026-04-30 11:39 | 42.53961 | 4.38789 | 39133 ft | 414 kts | 214° |
| 2026-04-30 11:40 | 42.48927 | 4.35038 | 39131 ft | 412 kts | 214° |
| 2026-04-30 11:40 | 42.43948 | 4.31333 | 39131 ft | 411 kts | 214° |
| 2026-04-30 11:41 | 42.38941 | 4.27615 | 39126 ft | 410 kts | 214° |
| 2026-04-30 11:41 | 42.33939 | 4.23901 | 39130 ft | 410 kts | 214° |
| 2026-04-30 11:42 | 42.28936 | 4.20201 | 39129 ft | 410 kts | 214° |
| 2026-04-30 11:42 | 42.23930 | 4.16511 | 39126 ft | 410 kts | 214° |
| 2026-04-30 11:43 | 42.18927 | 4.12819 | 39126 ft | 410 kts | 214° |
| 2026-04-30 11:43 | 42.13928 | 4.09143 | 39120 ft | 408 kts | 214° |
| 2026-04-30 11:44 | 42.08947 | 4.05486 | 39114 ft | 408 kts | 214° |
| 2026-04-30 11:44 | 42.03962 | 4.01835 | 39109 ft | 408 kts | 214° |
| 2026-04-30 11:45 | 41.98974 | 3.98186 | 39110 ft | 408 kts | 214° |
| 2026-04-30 11:45 | 41.93985 | 3.94548 | 39114 ft | 408 kts | 214° |
| 2026-04-30 11:46 | 41.88959 | 3.90992 | 39117 ft | 409 kts | 212° |
| 2026-04-30 11:46 | 41.83849 | 3.87598 | 39111 ft | 410 kts | 212° |
| 2026-04-30 11:47 | 41.78746 | 3.84198 | 39111 ft | 409 kts | 212° |
| 2026-04-30 11:47 | 41.73654 | 3.80784 | 39110 ft | 409 kts | 212° |
| 2026-04-30 11:48 | 41.68559 | 3.77374 | 39108 ft | 409 kts | 212° |
| 2026-04-30 11:48 | 41.63465 | 3.73970 | 39102 ft | 410 kts | 212° |
| 2026-04-30 11:49 | 41.58361 | 3.70572 | 39104 ft | 410 kts | 212° |
| 2026-04-30 11:49 | 41.53255 | 3.67171 | 39103 ft | 410 kts | 212° |
| 2026-04-30 11:50 | 41.48157 | 3.63777 | 39097 ft | 410 kts | 212° |
| 2026-04-30 11:50 | 41.43049 | 3.60393 | 39094 ft | 410 kts | 212° |
| 2026-04-30 11:51 | 41.37943 | 3.57011 | 39095 ft | 410 kts | 212° |
| 2026-04-30 11:51 | 41.32834 | 3.53635 | 39099 ft | 410 kts | 212° |
| 2026-04-30 11:52 | 41.27718 | 3.50257 | 39102 ft | 410 kts | 212° |
| 2026-04-30 11:52 | 41.22605 | 3.46890 | 39088 ft | 411 kts | 212° |
| 2026-04-30 11:53 | 41.17260 | 3.44064 | 39088 ft | 418 kts | 203° |
| 2026-04-30 11:53 | 41.11559 | 3.42290 | 39088 ft | 423 kts | 198° |
| 2026-04-30 11:54 | 41.05780 | 3.40795 | 39085 ft | 423 kts | 198° |
| 2026-04-30 11:54 | 41.00006 | 3.39273 | 39086 ft | 423 kts | 198° |
| 2026-04-30 11:55 | 40.94224 | 3.37752 | 39089 ft | 424 kts | 198° |
| 2026-04-30 11:55 | 40.88472 | 3.36243 | 39080 ft | 425 kts | 198° |
| 2026-04-30 11:56 | 40.82671 | 3.34718 | 39084 ft | 425 kts | 198° |
| 2026-04-30 11:56 | 40.76860 | 3.33197 | 39090 ft | 426 kts | 198° |
| 2026-04-30 11:57 | 40.71043 | 3.31683 | 39086 ft | 426 kts | 198° |
| 2026-04-30 11:57 | 40.65220 | 3.30160 | 39090 ft | 427 kts | 198° |
| 2026-04-30 11:58 | 40.59395 | 3.28639 | 39085 ft | 427 kts | 198° |
| 2026-04-30 11:58 | 40.53860 | 3.27203 | 39081 ft | 427 kts | 198° |
| 2026-04-30 11:59 | 40.48026 | 3.25686 | 39081 ft | 427 kts | 198° |
| 2026-04-30 11:59 | 40.42188 | 3.24176 | 39080 ft | 428 kts | 198° |
| 2026-04-30 12:00 | 40.36355 | 3.22667 | 39083 ft | 427 kts | 198° |
| 2026-04-30 12:00 | 40.30516 | 3.21158 | 39078 ft | 427 kts | 198° |
| 2026-04-30 12:01 | 40.24679 | 3.19656 | 39079 ft | 427 kts | 198° |
| 2026-04-30 12:01 | 40.19498 | 3.18322 | 39068 ft | 428 kts | 198° |
| 2026-04-30 12:02 | 40.13564 | 3.16794 | 39069 ft | 428 kts | 198° |
| 2026-04-30 12:02 | 40.08327 | 3.15448 | 39068 ft | 428 kts | 198° |
| 2026-04-30 12:03 | 39.99917 | 3.13295 | 39067 ft | 427 kts | 198° |
| 2026-04-30 12:04 | 39.94154 | 3.11483 | 38844 ft | 424 kts | 204° |
| 2026-04-30 12:04 | 39.91405 | 3.10169 | 38515 ft | 419 kts | 209° |
| 2026-04-30 12:04 | 39.88757 | 3.08584 | 37842 ft | 419 kts | 213° |
| 2026-04-30 12:04 | 39.86196 | 3.06746 | 36971 ft | 422 kts | 215° |
| 2026-04-30 12:05 | 39.83649 | 3.04860 | 36345 ft | 420 kts | 215° |
| 2026-04-30 12:05 | 39.81147 | 3.03022 | 35709 ft | 418 kts | 214° |
| 2026-04-30 12:05 | 39.78594 | 3.01155 | 34876 ft | 422 kts | 214° |
| 2026-04-30 12:05 | 39.76046 | 2.99303 | 34325 ft | 417 kts | 214° |
| 2026-04-30 12:06 | 39.73507 | 2.97458 | 33468 ft | 420 kts | 214° |
| 2026-04-30 12:06 | 39.70957 | 2.95609 | 32868 ft | 417 kts | 214° |
| 2026-04-30 12:06 | 39.68418 | 2.93773 | 32027 ft | 420 kts | 214° |
| 2026-04-30 12:06 | 39.65876 | 2.91936 | 31382 ft | 417 kts | 214° |
| 2026-04-30 12:07 | 39.63360 | 2.90117 | 30876 ft | 411 kts | 214° |
| 2026-04-30 12:07 | 39.60873 | 2.88322 | 30352 ft | 407 kts | 214° |
| 2026-04-30 12:07 | 39.58414 | 2.86547 | 29823 ft | 402 kts | 214° |
| 2026-04-30 12:07 | 39.55990 | 2.84801 | 29315 ft | 397 kts | 213° |
| 2026-04-30 12:08 | 39.53587 | 2.83074 | 28800 ft | 392 kts | 213° |
| 2026-04-30 12:08 | 39.51216 | 2.81367 | 28296 ft | 388 kts | 213° |
| 2026-04-30 12:08 | 39.48870 | 2.79675 | 27791 ft | 384 kts | 213° |
| 2026-04-30 12:08 | 39.47332 | 2.78567 | 27458 ft | 381 kts | 213° |
| 2026-04-30 12:09 | 39.45059 | 2.76770 | 26970 ft | 392 kts | 219° |
| 2026-04-30 12:09 | 39.42214 | 2.73631 | 26257 ft | 408 kts | 229° |
| 2026-04-30 12:09 | 39.40966 | 2.71810 | 25899 ft | 408 kts | 233° |
| 2026-04-30 12:09 | 39.39193 | 2.68957 | 25366 ft | 405 kts | 233° |
| 2026-04-30 12:10 | 39.37433 | 2.66144 | 24835 ft | 400 kts | 233° |
| 2026-04-30 12:10 | 39.35690 | 2.63377 | 24307 ft | 394 kts | 233° |
| 2026-04-30 12:10 | 39.33975 | 2.60658 | 23793 ft | 386 kts | 233° |
| 2026-04-30 12:10 | 39.32298 | 2.57992 | 23290 ft | 379 kts | 233° |
| 2026-04-30 12:11 | 39.30645 | 2.55374 | 22786 ft | 373 kts | 232° |
| 2026-04-30 12:11 | 39.29016 | 2.52803 | 22294 ft | 367 kts | 232° |
| 2026-04-30 12:11 | 39.27411 | 2.50271 | 21803 ft | 362 kts | 232° |
| 2026-04-30 12:11 | 39.25826 | 2.47770 | 21321 ft | 357 kts | 232° |
| 2026-04-30 12:12 | 39.24267 | 2.45313 | 20853 ft | 352 kts | 232° |
| 2026-04-30 12:12 | 39.22726 | 2.42884 | 20372 ft | 348 kts | 232° |
| 2026-04-30 12:12 | 39.21207 | 2.40490 | 19919 ft | 343 kts | 232° |
| 2026-04-30 12:12 | 39.19701 | 2.38120 | 19454 ft | 339 kts | 232° |
| 2026-04-30 12:13 | 39.18204 | 2.35769 | 18996 ft | 346 kts | 232° |
| 2026-04-30 12:13 | 39.16620 | 2.33272 | 18507 ft | 370 kts | 232° |
| 2026-04-30 12:13 | 39.14969 | 2.30670 | 17987 ft | 378 kts | 232° |
| 2026-04-30 12:13 | 39.13298 | 2.28047 | 17472 ft | 379 kts | 232° |
| 2026-04-30 12:14 | 39.11634 | 2.25437 | 16947 ft | 374 kts | 232° |
| 2026-04-30 12:14 | 39.09999 | 2.22874 | 16445 ft | 367 kts | 232° |
| 2026-04-30 12:14 | 39.08387 | 2.20359 | 15954 ft | 360 kts | 231° |
| 2026-04-30 12:14 | 39.06807 | 2.17897 | 15464 ft | 354 kts | 231° |
| 2026-04-30 12:15 | 39.05249 | 2.15474 | 14985 ft | 348 kts | 231° |
| 2026-04-30 12:15 | 39.03723 | 2.13096 | 14499 ft | 342 kts | 231° |
| 2026-04-30 12:15 | 39.02221 | 2.10753 | 14043 ft | 337 kts | 231° |
| 2026-04-30 12:15 | 39.00740 | 2.08442 | 13595 ft | 332 kts | 232° |
| 2026-04-30 12:16 | 38.99293 | 2.06184 | 13381 ft | 321 kts | 232° |
| 2026-04-30 12:16 | 38.97905 | 2.04021 | 13253 ft | 307 kts | 232° |
| 2026-04-30 12:16 | 38.96577 | 2.01953 | 13140 ft | 293 kts | 232° |
| 2026-04-30 12:16 | 38.95307 | 1.99978 | 13030 ft | 280 kts | 232° |
| 2026-04-30 12:17 | 38.92938 | 1.96292 | 12789 ft | 257 kts | 232° |
| 2026-04-30 12:17 | 38.91808 | 1.94536 | 12521 ft | 252 kts | 232° |
| 2026-04-30 12:17 | 38.90754 | 1.92779 | 12270 ft | 247 kts | 239° |
| 2026-04-30 12:18 | 38.89950 | 1.90836 | 12020 ft | 247 kts | 245° |
| 2026-04-30 12:18 | 38.89221 | 1.88849 | 11771 ft | 245 kts | 245° |
| 2026-04-30 12:18 | 38.88489 | 1.86878 | 11521 ft | 246 kts | 245° |
| 2026-04-30 12:18 | 38.87747 | 1.84890 | 11269 ft | 246 kts | 245° |
| 2026-04-30 12:19 | 38.87005 | 1.82916 | 11041 ft | 245 kts | 245° |
| 2026-04-30 12:19 | 38.86267 | 1.80954 | 10752 ft | 244 kts | 245° |
| 2026-04-30 12:19 | 38.85858 | 1.78892 | 10527 ft | 236 kts | 271° |
| 2026-04-30 12:19 | 38.86261 | 1.76923 | 10452 ft | 227 kts | 297° |
| 2026-04-30 12:20 | 38.87342 | 1.75407 | 10170 ft | 238 kts | 325° |
| 2026-04-30 12:20 | 38.88809 | 1.74369 | 9779 ft | 243 kts | 329° |
| 2026-04-30 12:20 | 38.90383 | 1.73526 | 9491 ft | 250 kts | 349° |
| 2026-04-30 12:20 | 38.92114 | 1.73688 | 9178 ft | 253 kts | 19° |
| 2026-04-30 12:21 | 38.93555 | 1.74925 | 8870 ft | 252 kts | 50° |
| 2026-04-30 12:21 | 38.94476 | 1.76844 | 8576 ft | 254 kts | 64° |
| 2026-04-30 12:21 | 38.95204 | 1.78874 | 8279 ft | 253 kts | 66° |
| 2026-04-30 12:21 | 38.95925 | 1.80925 | 7974 ft | 251 kts | 65° |
| 2026-04-30 12:22 | 38.96670 | 1.82939 | 7667 ft | 249 kts | 64° |
| 2026-04-30 12:22 | 38.97556 | 1.84828 | 7365 ft | 246 kts | 45° |
| 2026-04-30 12:22 | 38.98975 | 1.85972 | 7070 ft | 240 kts | 14° |
| 2026-04-30 12:22 | 39.00603 | 1.86021 | 6800 ft | 233 kts | 342° |
| 2026-04-30 12:23 | 39.02004 | 1.85191 | 6551 ft | 235 kts | 328° |
| 2026-04-30 12:23 | 39.03429 | 1.84088 | 6265 ft | 240 kts | 324° |
| 2026-04-30 12:23 | 39.04391 | 1.82819 | 6034 ft | 237 kts | 299° |
| 2026-04-30 12:23 | 39.04844 | 1.80823 | 5706 ft | 234 kts | 268° |
| 2026-04-30 12:24 | 39.04436 | 1.78840 | 5412 ft | 230 kts | 242° |
| 2026-04-30 12:24 | 39.03693 | 1.77021 | 5148 ft | 229 kts | 242° |
| 2026-04-30 12:24 | 39.02961 | 1.75218 | 4880 ft | 227 kts | 242° |
| 2026-04-30 12:24 | 39.02231 | 1.73426 | 4612 ft | 225 kts | 242° |
| 2026-04-30 12:25 | 39.01497 | 1.71660 | 4359 ft | 223 kts | 242° |
| 2026-04-30 12:25 | 39.00768 | 1.69911 | 4109 ft | 221 kts | 242° |
| 2026-04-30 12:25 | 39.00045 | 1.68174 | 3867 ft | 220 kts | 242° |
| 2026-04-30 12:25 | 38.99313 | 1.66418 | 3606 ft | 226 kts | 242° |
| 2026-04-30 12:26 | 38.98570 | 1.64635 | 3362 ft | 226 kts | 242° |
| 2026-04-30 12:26 | 38.97827 | 1.62889 | 3187 ft | 221 kts | 242° |
| 2026-04-30 12:26 | 38.97105 | 1.61137 | 3017 ft | 221 kts | 242° |
| 2026-04-30 12:26 | 38.96411 | 1.59459 | 2953 ft | 208 kts | 242° |
| 2026-04-30 12:27 | 38.95760 | 1.57875 | 2950 ft | 193 kts | 242° |
| 2026-04-30 12:27 | 38.95127 | 1.56338 | 2983 ft | 199 kts | 242° |
| 2026-04-30 12:27 | 38.94488 | 1.54784 | 2904 ft | 192 kts | 242° |
| 2026-04-30 12:27 | 38.93869 | 1.53282 | 2614 ft | 189 kts | 242° |
| 2026-04-30 12:28 | 38.93260 | 1.51808 | 2338 ft | 184 kts | 242° |
| 2026-04-30 12:28 | 38.92662 | 1.50355 | 2081 ft | 179 kts | 242° |
| 2026-04-30 12:28 | 38.92095 | 1.48977 | 1846 ft | 174 kts | 242° |
| 2026-04-30 12:28 | 38.91545 | 1.47648 | 1622 ft | 166 kts | 242° |
| 2026-04-30 12:29 | 38.91010 | 1.46348 | 1402 ft | 161 kts | 241° |
| 2026-04-30 12:29 | 38.90495 | 1.45098 | 1187 ft | 155 kts | 240° |
| 2026-04-30 12:29 | 38.90008 | 1.43920 | 999 ft | 145 kts | 240° |
| 2026-04-30 12:29 | 38.89550 | 1.42809 | 803 ft | 137 kts | 241° |
| 2026-04-30 12:30 | 38.89111 | 1.41739 | 557 ft | 135 kts | 240° |
| 2026-04-30 12:30 | 38.88687 | 1.40708 | 386 ft | 125 kts | 241° |
| 2026-04-30 12:30 | 38.88280 | 1.39726 | 231 ft | 127 kts | 241° |
| 2026-04-30 12:30 | 38.87869 | 1.38730 | 54 ft | 125 kts | 241° |
| 2026-04-30 12:31 | 38.87473 | 1.37756 | 379 ft | 149 kts | 241° |
| 2026-04-30 12:31 | 38.86962 | 1.36522 | 1115 ft | 159 kts | 240° |
| 2026-04-30 12:31 | 38.86439 | 1.35262 | 1961 ft | 165 kts | 241° |
| 2026-04-30 12:31 | 38.85855 | 1.33889 | 2578 ft | 185 kts | 240° |
| 2026-04-30 12:32 | 38.85157 | 1.32424 | 2881 ft | 195 kts | 226° |
| 2026-04-30 12:32 | 38.83964 | 1.31726 | 2968 ft | 195 kts | 180° |
| 2026-04-30 12:32 | 38.82669 | 1.32334 | 2946 ft | 216 kts | 140° |
| 2026-04-30 12:32 | 38.81823 | 1.33921 | 2952 ft | 219 kts | 105° |
| 2026-04-30 12:33 | 38.81755 | 1.35691 | 2968 ft | 219 kts | 82° |
| 2026-04-30 12:33 | 38.82063 | 1.37597 | 2967 ft | 218 kts | 72° |
| 2026-04-30 12:33 | 38.82576 | 1.39430 | 2966 ft | 218 kts | 69° |
| 2026-04-30 12:33 | 38.83111 | 1.41248 | 2960 ft | 218 kts | 69° |
| 2026-04-30 12:34 | 38.83646 | 1.43070 | 2953 ft | 218 kts | 69° |
| 2026-04-30 12:34 | 38.84002 | 1.44274 | 2968 ft | 218 kts | 69° |
| 2026-04-30 12:34 | 38.84720 | 1.46708 | 2966 ft | 218 kts | 69° |
| 2026-04-30 12:34 | 38.85253 | 1.48502 | 2968 ft | 218 kts | 68° |
| 2026-04-30 12:35 | 38.85793 | 1.50323 | 2970 ft | 218 kts | 69° |
| 2026-04-30 12:35 | 38.86336 | 1.52144 | 2969 ft | 219 kts | 69° |
| 2026-04-30 12:35 | 38.86877 | 1.53962 | 2956 ft | 218 kts | 69° |
| 2026-04-30 12:35 | 38.87418 | 1.55781 | 2950 ft | 215 kts | 69° |
| 2026-04-30 12:36 | 38.87930 | 1.57500 | 2980 ft | 198 kts | 67° |
| 2026-04-30 12:36 | 38.88725 | 1.58777 | 2951 ft | 176 kts | 29° |
| 2026-04-30 12:36 | 38.89864 | 1.59067 | 2981 ft | 171 kts | 358° |
| 2026-04-30 12:36 | 38.90974 | 1.58621 | 2979 ft | 167 kts | 327° |
| 2026-04-30 12:37 | 38.91801 | 1.57583 | 2977 ft | 168 kts | 306° |
| 2026-04-30 12:37 | 38.92492 | 1.56365 | 2968 ft | 168 kts | 306° |
| 2026-04-30 12:37 | 38.93173 | 1.55141 | 2967 ft | 168 kts | 300° |
| 2026-04-30 12:37 | 38.93500 | 1.53716 | 2968 ft | 169 kts | 270° |
| 2026-04-30 12:38 | 38.93303 | 1.52240 | 2962 ft | 169 kts | 251° |
| 2026-04-30 12:38 | 38.92846 | 1.50848 | 2961 ft | 170 kts | 244° |
| 2026-04-30 12:38 | 38.92309 | 1.49504 | 2960 ft | 169 kts | 242° |
| 2026-04-30 12:38 | 38.91755 | 1.48156 | 2766 ft | 171 kts | 242° |
| 2026-04-30 12:39 | 38.91206 | 1.46837 | 2397 ft | 165 kts | 241° |
| 2026-04-30 12:39 | 38.90653 | 1.45543 | 1826 ft | 166 kts | 241° |
| 2026-04-30 12:39 | 38.90133 | 1.44213 | 1312 ft | 166 kts | 241° |
| 2026-04-30 12:39 | 38.89607 | 1.42940 | 882 ft | 161 kts | 242° |
| 2026-04-30 12:40 | 38.89082 | 1.41700 | 565 ft | 154 kts | 244° |
| 2026-04-30 12:40 | 38.88610 | 1.40527 | 357 ft | 144 kts | 243° |
| 2026-04-30 12:40 | 38.88148 | 1.39404 | 152 ft | 144 kts | 243° |
| 2026-04-30 12:40 | 38.87683 | 1.38280 | 16 ft | 140 kts | 242° |
| 2026-04-30 12:41 | 38.87325 | 1.37404 | 10 ft | 72 kts | 242° |
| 2026-04-30 12:41 | 38.87148 | 1.36982 | 11 ft | 42 kts | 241° |
| 2026-04-30 12:41 | 38.87103 | 1.36720 | 8 ft | 23 kts | 270° |